createdAt,value
2023-06-25T00:01:21.336Z,21.54
2023-06-25T00:03:49.728Z,21.51
2023-06-25T00:06:17.738Z,21.49
2023-06-25T00:08:44.781Z,21.47
2023-06-25T00:11:12.614Z,21.43
2023-06-25T00:13:41.033Z,21.40
2023-06-25T00:16:11.701Z,21.37
2023-06-25T00:18:38.606Z,21.35
2023-06-25T00:21:06.322Z,21.32
2023-06-25T00:23:33.341Z,21.26
2023-06-25T00:26:00.238Z,21.23
2023-06-25T00:28:29.316Z,21.21
2023-06-25T00:30:56.688Z,21.19
2023-06-25T00:33:24.979Z,21.14
2023-06-25T00:35:57.687Z,21.12
2023-06-25T00:38:26.005Z,21.08
2023-06-25T00:40:56.425Z,21.04
2023-06-25T00:43:44.778Z,21.02
2023-06-25T00:46:17.531Z,21.00
2023-06-25T00:51:30.454Z,20.88
2023-06-25T00:54:00.989Z,20.84
2023-06-25T00:56:30.571Z,20.80
2023-06-25T00:59:02.233Z,20.76
2023-06-25T01:01:48.947Z,20.75
2023-06-25T01:04:26.091Z,20.68
2023-06-25T01:06:59.010Z,20.62
2023-06-25T01:09:29.025Z,20.62
2023-06-25T01:14:44.893Z,20.50
2023-06-25T01:17:17.669Z,20.49
2023-06-25T01:19:46.822Z,20.47
2023-06-25T01:22:23.235Z,20.45
2023-06-25T01:27:41.390Z,20.39
2023-06-25T01:30:09.315Z,20.35
2023-06-25T01:32:36.312Z,20.33
2023-06-25T01:35:03.895Z,20.29
2023-06-25T01:37:32.308Z,20.27
2023-06-25T01:39:59.320Z,20.26
2023-06-25T01:42:26.731Z,20.23
2023-06-25T01:44:53.729Z,20.22
2023-06-25T01:47:23.289Z,20.19
2023-06-25T01:49:52.306Z,20.15
2023-06-25T01:52:19.456Z,20.14
2023-06-25T01:54:47.396Z,20.13
2023-06-25T01:57:14.711Z,20.10
2023-06-25T01:59:41.692Z,20.07
2023-06-25T02:02:09.932Z,20.04
2023-06-25T02:04:36.820Z,19.96
2023-06-25T02:07:05.010Z,19.90
2023-06-25T02:09:32.486Z,19.88
2023-06-25T02:12:00.330Z,19.87
2023-06-25T02:14:29.595Z,19.85
2023-06-25T02:16:56.674Z,19.81
2023-06-25T02:19:23.476Z,19.75
2023-06-25T02:21:51.472Z,19.73
2023-06-25T02:24:21.409Z,19.70
2023-06-25T02:26:52.642Z,19.68
2023-06-25T02:29:22.631Z,19.68
2023-06-25T02:31:54.791Z,19.64
2023-06-25T02:34:21.921Z,19.64
2023-06-25T02:36:52.761Z,19.62
2023-06-25T02:39:19.941Z,19.59
2023-06-25T02:41:47.045Z,19.59
2023-06-25T02:44:14.619Z,19.59
2023-06-25T02:46:42.504Z,19.57
2023-06-25T02:49:09.375Z,19.54
2023-06-25T02:51:36.617Z,19.49
2023-06-25T02:54:03.782Z,19.47
2023-06-25T02:56:30.669Z,19.44
2023-06-25T02:58:57.680Z,19.42
2023-06-25T03:01:24.746Z,19.41
2023-06-25T03:03:52.058Z,19.40
2023-06-25T03:06:20.207Z,19.34
2023-06-25T03:08:49.115Z,19.31
2023-06-25T03:11:20.715Z,19.28
2023-06-25T03:13:49.176Z,19.29
2023-06-25T03:16:16.140Z,19.28
2023-06-25T03:18:42.916Z,19.28
2023-06-25T03:21:09.877Z,19.25
2023-06-25T03:23:36.774Z,19.24
2023-06-25T03:26:03.802Z,19.21
2023-06-25T03:28:30.618Z,19.18
2023-06-25T03:30:57.328Z,19.17
2023-06-25T03:33:24.057Z,19.16
2023-06-25T03:35:50.935Z,19.15
2023-06-25T03:38:18.955Z,19.17
2023-06-25T03:40:45.624Z,19.16
2023-06-25T03:43:12.415Z,19.16
2023-06-25T03:45:42.629Z,19.14
2023-06-25T03:48:10.991Z,19.15
2023-06-25T03:50:40.415Z,19.15
2023-06-25T03:53:07.493Z,19.15
2023-06-25T03:55:34.455Z,19.16
2023-06-25T03:58:01.905Z,19.18
2023-06-25T04:00:30.830Z,19.20
2023-06-25T04:02:57.599Z,19.21
2023-06-25T04:05:24.559Z,19.22
2023-06-25T04:07:51.330Z,19.23
2023-06-25T04:10:20.354Z,19.25
2023-06-25T04:12:48.558Z,19.24
2023-06-25T04:15:15.456Z,19.21
2023-06-25T04:17:42.404Z,19.22
2023-06-25T04:20:09.534Z,19.24
2023-06-25T04:22:36.385Z,19.25
2023-06-25T04:25:06.046Z,19.26
2023-06-25T04:27:33.013Z,19.27
2023-06-25T04:30:00.013Z,19.27
2023-06-25T04:32:30.112Z,19.29
2023-06-25T04:34:58.966Z,19.32
2023-06-25T04:37:26.122Z,19.34
2023-06-25T04:39:55.359Z,19.39
2023-06-25T04:42:23.322Z,19.40
2023-06-25T04:44:54.086Z,19.43
2023-06-25T04:47:21.055Z,19.47
2023-06-25T04:49:48.392Z,19.50
2023-06-25T04:52:19.887Z,19.52
2023-06-25T04:54:48.039Z,19.54
2023-06-25T04:57:20.228Z,19.58
2023-06-25T04:59:47.578Z,19.63
2023-06-25T05:02:15.736Z,19.65
2023-06-25T05:04:47.029Z,19.70
2023-06-25T05:07:18.470Z,19.72
2023-06-25T05:09:45.308Z,19.77
2023-06-25T05:14:54.425Z,19.86
2023-06-25T05:17:21.592Z,19.92
2023-06-25T05:19:48.682Z,19.97
2023-06-25T05:22:17.572Z,20.02
2023-06-25T05:24:45.657Z,20.09
2023-06-25T05:27:12.480Z,20.18
2023-06-25T05:29:39.200Z,20.27
2023-06-25T05:32:07.461Z,20.34
2023-06-25T05:34:36.390Z,20.42
2023-06-25T05:37:37.324Z,20.54
2023-06-25T05:43:12.101Z,20.85
2023-06-25T05:45:39.612Z,21.00
2023-06-25T05:50:55.555Z,21.30
2023-06-25T06:02:58.417Z,21.88
2023-06-25T06:16:08.151Z,22.61
2023-06-25T06:18:34.927Z,22.75
2023-06-25T06:21:01.624Z,22.88
2023-06-25T06:23:28.394Z,23.00
2023-06-25T06:25:55.156Z,23.15
2023-06-25T06:28:21.835Z,23.26
2023-06-25T07:02:09.924Z,23.44
2023-06-25T07:05:41.110Z,23.51
2023-06-25T07:12:41.007Z,23.59
2023-06-25T07:15:39.018Z,23.65
2023-06-25T07:18:49.881Z,23.69
2023-06-25T07:21:46.263Z,23.73
2023-06-25T07:26:25.634Z,23.79
2023-06-25T07:27:31.993Z,23.86
2023-06-25T07:29:56.982Z,23.89
2023-06-25T07:32:47.922Z,23.89
2023-06-25T07:35:17.160Z,23.90
2023-06-25T07:37:55.645Z,23.94
2023-06-25T07:40:45.309Z,24.01
2023-06-25T07:49:16.349Z,24.14
2023-06-25T07:51:11.172Z,24.12
2023-06-25T07:52:10.700Z,24.16
2023-06-25T07:55:05.264Z,24.19
2023-06-25T07:57:47.864Z,24.24
2023-06-25T08:00:44.881Z,24.31
2023-06-25T08:07:04.659Z,24.41
2023-06-25T08:09:59.628Z,24.47
2023-06-25T08:15:25.210Z,24.52
2023-06-25T08:19:18.181Z,24.57
2023-06-25T08:24:28.770Z,24.61
2023-06-25T08:26:59.852Z,24.70
2023-06-25T08:29:54.275Z,24.77
2023-06-25T08:35:37.535Z,24.89
2023-06-25T08:41:15.031Z,24.89
2023-06-25T08:48:10.209Z,24.89
2023-06-25T08:51:12.472Z,24.97
2023-06-25T09:01:12.983Z,25.26
2023-06-25T09:05:19.984Z,25.27
2023-06-25T09:10:33.582Z,25.32
2023-06-25T09:18:27.217Z,25.43
2023-06-25T09:20:55.920Z,25.45
2023-06-25T09:23:28.145Z,25.51
2023-06-25T09:26:14.587Z,25.53
2023-06-25T09:32:35.337Z,25.60
2023-06-25T09:46:24.127Z,25.88
2023-06-25T09:58:05.200Z,25.97
2023-06-25T10:00:33.601Z,25.99
2023-06-25T10:03:00.615Z,26.07
2023-06-25T10:10:59.493Z,26.18
2023-06-25T10:16:42.611Z,26.31
2023-06-25T10:34:51.437Z,26.67
2023-06-25T10:37:20.041Z,26.84
2023-06-25T10:55:18.531Z,27.18
2023-06-25T20:45:07.289Z,26.21
